createdAt,value
2023-04-05T00:01:55.503Z,95389.25
2023-04-05T00:04:23.699Z,95380.91
2023-04-05T00:06:52.836Z,95382.75
2023-04-05T00:09:20.733Z,95379.53
2023-04-05T00:11:48.445Z,95382.81
2023-04-05T00:14:15.465Z,95381.47
2023-04-05T00:16:42.730Z,95375.59
2023-04-05T00:19:12.282Z,95376.53
2023-04-05T00:21:40.383Z,95375.59
2023-04-05T00:24:08.068Z,95371.38
2023-04-05T00:26:36.207Z,95364.59
2023-04-05T00:29:03.147Z,95369.50
2023-04-05T00:31:30.625Z,95368.59
2023-04-05T00:33:57.928Z,95365.41
2023-04-05T00:36:24.524Z,95367.16
2023-04-05T00:38:51.245Z,95355.38
2023-04-05T00:41:18.039Z,95357.88
2023-04-05T00:43:44.742Z,95359.66
2023-04-05T00:46:11.788Z,95363.00
2023-04-05T00:48:39.261Z,95355.44
2023-04-05T00:51:09.486Z,95357.84
2023-04-05T00:53:37.639Z,95358.13
2023-04-05T00:56:04.821Z,95353.25
2023-04-05T00:58:31.851Z,95346.56
2023-04-05T01:01:14.065Z,95343.13
2023-04-05T01:04:02.932Z,95340.59
2023-04-05T01:06:48.341Z,95342.28
2023-04-05T01:09:29.384Z,95336.66
2023-04-05T01:11:59.112Z,95335.91
2023-04-05T01:14:25.901Z,95337.47
2023-04-05T01:16:58.091Z,95337.47
2023-04-05T01:19:30.186Z,95325.56
2023-04-05T01:22:14.308Z,95327.28
2023-04-05T01:24:41.064Z,95327.94
2023-04-05T01:27:11.121Z,95324.69
2023-04-05T01:29:59.385Z,95323.00
2023-04-05T01:32:44.158Z,95321.91
2023-04-05T01:35:19.989Z,95318.59
2023-04-05T01:37:52.899Z,95312.72
2023-04-05T01:40:20.967Z,95311.97
2023-04-05T01:42:47.529Z,95310.28
2023-04-05T01:45:14.728Z,95307.81
2023-04-05T01:47:42.371Z,95307.69
2023-04-05T01:50:09.611Z,95306.91
2023-04-05T01:52:36.474Z,95308.69
2023-04-05T01:55:03.586Z,95306.84
2023-04-05T01:57:30.410Z,95301.72
2023-04-05T01:59:57.150Z,95300.84
2023-04-05T02:02:23.916Z,95302.50
2023-04-05T02:04:50.684Z,95297.28
2023-04-05T02:07:17.223Z,95293.75
2023-04-05T02:09:44.073Z,95296.09
2023-04-05T02:12:12.482Z,95288.66
2023-04-05T02:14:39.374Z,95288.47
2023-04-05T02:17:07.460Z,95288.41
2023-04-05T02:19:40.831Z,95285.16
2023-04-05T02:22:08.628Z,95285.16
2023-04-05T02:24:35.382Z,95284.38
2023-04-05T02:27:02.289Z,95281.88
2023-04-05T02:29:28.926Z,95276.84
2023-04-05T02:31:56.131Z,95284.25
2023-04-05T02:34:22.889Z,95278.56
2023-04-05T02:36:51.369Z,95270.19
2023-04-05T02:39:18.613Z,95270.81
2023-04-05T02:41:46.458Z,95273.25
2023-04-05T02:44:13.499Z,95265.72
2023-04-05T02:46:40.537Z,95267.53
2023-04-05T02:49:07.185Z,95269.19
2023-04-05T02:51:35.600Z,95260.72
2023-04-05T02:54:06.341Z,95259.97
2023-04-05T02:56:36.579Z,95262.25
2023-04-05T02:59:08.798Z,95255.75
2023-04-05T03:01:36.735Z,95255.00
2023-04-05T03:04:04.006Z,95255.91
2023-04-05T03:06:32.586Z,95260.16
2023-04-05T03:09:02.060Z,95250.00
2023-04-05T03:11:28.865Z,95244.13
2023-04-05T03:13:58.062Z,95246.66
2023-04-05T03:16:41.442Z,95247.59
2023-04-05T03:19:22.553Z,95246.78
2023-04-05T03:21:53.828Z,95252.00
2023-04-05T03:24:26.052Z,95248.50
2023-04-05T03:26:55.732Z,95251.00
2023-04-05T03:29:24.694Z,95245.13
2023-04-05T03:31:52.854Z,95249.72
2023-04-05T03:34:22.386Z,95243.97
2023-04-05T03:36:50.556Z,95247.38
2023-04-05T03:39:27.138Z,95245.94
2023-04-05T03:41:54.957Z,95244.63
2023-04-05T03:44:21.681Z,95244.84
2023-04-05T03:46:48.467Z,95247.53
2023-04-05T03:49:16.567Z,95254.47
2023-04-05T03:51:43.853Z,95258.91
2023-04-05T03:54:10.513Z,95256.72
2023-04-05T03:56:37.553Z,95251.53
2023-04-05T03:59:11.607Z,95254.88
2023-04-05T04:01:38.791Z,95245.16
2023-04-05T04:04:06.261Z,95254.59
2023-04-05T04:06:33.231Z,95248.84
2023-04-05T04:09:00.006Z,95241.41
2023-04-05T04:11:28.877Z,95249.00
2023-04-05T04:13:55.596Z,95244.88
2023-04-05T04:16:35.291Z,95240.75
2023-04-05T04:19:18.373Z,95244.25
2023-04-05T04:22:02.978Z,95236.41
2023-04-05T04:24:50.016Z,95243.91
2023-04-05T04:27:35.970Z,95243.16
2023-04-05T04:30:29.119Z,95241.47
2023-04-05T04:33:09.224Z,95245.09
2023-04-05T04:36:14.336Z,95240.19
2023-04-05T04:39:16.003Z,95242.13
2023-04-05T04:42:11.904Z,95235.56
2023-04-05T04:44:54.711Z,95236.59
2023-04-05T04:47:30.769Z,95239.19
2023-04-05T04:50:19.876Z,95239.13
2023-04-05T04:52:47.433Z,95229.06
2023-04-05T04:55:14.356Z,95232.69
2023-04-05T04:57:42.431Z,95236.91
2023-04-05T05:00:14.840Z,95238.63
2023-04-05T05:02:44.191Z,95241.72
2023-04-05T05:05:14.757Z,95235.66
2023-04-05T05:07:42.468Z,95237.03
2023-04-05T05:10:11.607Z,95237.81
2023-04-05T05:12:38.973Z,95237.19
2023-04-05T05:15:06.209Z,95231.09
2023-04-05T05:17:32.808Z,95232.66
2023-04-05T05:20:00.490Z,95239.28
2023-04-05T05:22:28.075Z,95233.41
2023-04-05T05:24:54.781Z,95241.53
2023-04-05T05:27:22.162Z,95237.06
2023-04-05T05:29:49.016Z,95236.78
2023-04-05T05:32:17.009Z,95242.22
2023-04-05T05:34:44.989Z,95242.50
2023-04-05T05:37:12.889Z,95239.59
2023-04-05T05:39:39.485Z,95243.41
2023-04-05T05:42:06.622Z,95246.13
2023-04-05T05:44:33.228Z,95246.38
2023-04-05T05:46:59.867Z,95246.75
2023-04-05T05:49:26.440Z,95250.38
2023-04-05T05:51:53.993Z,95258.72
2023-04-05T05:54:20.714Z,95253.72
2023-04-05T05:56:47.552Z,95250.19
2023-04-05T05:59:14.694Z,95246.84
2023-04-05T06:01:46.763Z,95249.03
2023-04-05T06:04:14.089Z,95258.47
2023-04-05T06:06:43.721Z,95259.75
2023-04-05T06:09:11.019Z,95257.34
2023-04-05T06:11:43.581Z,95255.03
2023-04-05T06:14:20.731Z,95251.69
2023-04-05T06:16:47.522Z,95254.41
2023-04-05T06:19:14.789Z,95256.72
2023-04-05T06:21:41.321Z,95262.56
2023-04-05T06:24:07.928Z,95256.97
2023-04-05T06:26:35.168Z,95262.94
2023-04-05T06:29:01.800Z,95268.97
2023-04-05T06:31:32.636Z,95267.75
2023-04-05T06:33:59.899Z,95266.88
2023-04-05T06:36:27.747Z,95271.53
2023-04-05T06:38:54.595Z,95269.00
2023-04-05T06:41:21.287Z,95261.13
2023-04-05T06:43:47.896Z,95268.81
2023-04-05T06:46:14.604Z,95270.88
2023-04-05T06:48:42.335Z,95265.06
2023-04-05T06:51:09.033Z,95261.94
2023-04-05T06:53:36.005Z,95257.31
2023-04-05T06:56:02.933Z,95250.91
2023-04-05T06:58:30.008Z,95248.91
2023-04-05T07:00:56.830Z,95252.91
2023-04-05T07:03:23.456Z,95245.13
2023-04-05T07:06:00.305Z,95248.56
2023-04-05T07:08:28.618Z,95247.75
2023-04-05T07:10:55.511Z,95243.66
2023-04-05T07:13:23.359Z,95246.41
2023-04-05T07:15:51.232Z,95245.66
2023-04-05T07:18:18.228Z,95235.84
2023-04-05T07:20:51.400Z,95247.00
2023-04-05T07:23:18.321Z,95239.81
2023-04-05T07:25:45.088Z,95243.13
2023-04-05T07:28:11.780Z,95247.63
2023-04-05T07:30:38.625Z,95253.47
2023-04-05T07:33:05.505Z,95247.34
2023-04-05T07:35:32.149Z,95249.56
2023-04-05T07:37:58.879Z,95249.59
2023-04-05T07:40:25.772Z,95252.25
2023-04-05T07:42:52.498Z,95253.47
2023-04-05T07:45:19.345Z,95257.09
2023-04-05T07:47:46.476Z,95261.13
2023-04-05T07:50:15.518Z,95264.91
2023-04-05T07:52:42.891Z,95256.88
2023-04-05T07:55:10.469Z,95265.53
2023-04-05T07:57:37.702Z,95266.94
2023-04-05T08:00:10.770Z,95269.84
2023-04-05T08:02:40.135Z,95266.94
2023-04-05T08:05:07.562Z,95267.03
2023-04-05T08:07:34.275Z,95277.50
2023-04-05T08:10:00.874Z,95271.69
2023-04-05T08:12:27.629Z,95268.91
2023-04-05T08:14:54.345Z,95269.19
2023-04-05T08:17:21.128Z,95267.63
2023-04-05T08:19:49.330Z,95270.53
2023-04-05T08:22:17.815Z,95272.41
2023-04-05T08:24:44.741Z,95268.75
2023-04-05T08:27:11.779Z,95265.75
2023-04-05T08:29:38.683Z,95260.66
2023-04-05T08:32:06.079Z,95260.53
2023-04-05T08:34:32.778Z,95259.06
2023-04-05T08:37:00.352Z,95262.44
2023-04-05T08:39:27.173Z,95260.81
2023-04-05T08:42:15.841Z,95256.41
2023-04-05T08:44:44.701Z,95260.34
2023-04-05T08:47:15.536Z,95255.75
2023-04-05T08:49:45.836Z,95265.03
2023-04-05T08:52:12.498Z,95255.59
2023-04-05T08:54:39.578Z,95260.09
2023-04-05T08:57:07.360Z,95261.19
2023-04-05T08:59:36.187Z,95257.31
2023-04-05T09:02:12.242Z,95266.88
2023-04-05T09:04:44.781Z,95260.03
2023-04-05T09:07:13.643Z,95256.75
2023-04-05T09:09:44.201Z,95258.50
2023-04-05T09:12:11.427Z,95258.19
2023-04-05T09:14:41.609Z,95260.72
2023-04-05T09:17:08.547Z,95257.00
2023-04-05T09:19:35.244Z,95257.19
2023-04-05T09:22:08.392Z,95263.53
2023-04-05T09:24:44.725Z,95267.53
2023-04-05T09:27:14.399Z,95260.81
2023-04-05T09:29:47.206Z,95260.56
2023-04-05T09:32:15.769Z,95263.44
2023-04-05T09:34:43.753Z,95259.47
2023-04-05T09:37:19.595Z,95264.53
2023-04-05T09:39:49.705Z,95263.19
2023-04-05T09:42:19.243Z,95253.16
2023-04-05T09:44:51.286Z,95257.44
2023-04-05T09:47:23.177Z,95251.38
2023-04-05T09:49:54.394Z,95255.03
2023-04-05T09:52:25.669Z,95260.84
2023-04-05T09:55:04.062Z,95255.09
2023-04-05T09:57:34.598Z,95255.47
2023-04-05T10:00:01.295Z,95261.03
2023-04-05T10:02:39.287Z,95264.56
2023-04-05T10:05:07.508Z,95262.91
2023-04-05T10:07:34.723Z,95268.16
2023-04-05T10:10:03.250Z,95261.78
2023-04-05T10:12:32.182Z,95266.97
2023-04-05T10:14:59.730Z,95253.41
2023-04-05T10:18:00.811Z,95248.41
2023-04-05T10:20:30.302Z,95253.41
2023-04-05T10:23:11.553Z,95259.47
2023-04-05T10:25:59.518Z,95250.34
2023-04-05T10:28:33.199Z,95250.31
2023-04-05T10:31:13.201Z,95244.16
2023-04-05T10:33:47.673Z,95242.19
2023-04-05T10:36:42.261Z,95228.56
2023-04-05T10:39:12.586Z,95225.75
2023-04-05T10:41:47.658Z,95232.94
2023-04-05T10:44:25.547Z,95235.59
2023-04-05T10:46:55.579Z,95243.66
2023-04-05T10:49:23.291Z,95240.75
2023-04-05T10:51:50.885Z,95223.94
2023-04-05T10:54:19.955Z,95227.72
2023-04-05T10:56:47.308Z,95225.88
2023-04-05T10:59:15.432Z,95223.16
2023-04-05T11:01:42.948Z,95229.66
2023-04-05T11:04:14.377Z,95222.28
2023-04-05T11:06:42.802Z,95231.09
2023-04-05T11:09:15.603Z,95224.34
2023-04-05T11:11:44.532Z,95229.47
2023-04-05T11:14:25.814Z,95220.16
2023-04-05T11:16:56.556Z,95221.09
2023-04-05T11:19:45.220Z,95211.97
2023-04-05T11:22:13.058Z,95211.59
2023-04-05T11:25:01.858Z,95206.38
2023-04-05T11:27:33.369Z,95213.94
2023-04-05T11:30:01.220Z,95207.06
2023-04-05T11:32:45.308Z,95205.72
2023-04-05T11:35:18.166Z,95214.19
2023-04-05T11:37:59.895Z,95209.84
2023-04-05T11:40:40.392Z,95206.69
2023-04-05T11:43:12.428Z,95200.06
2023-04-05T11:45:42.010Z,95199.59
2023-04-05T11:48:11.769Z,95196.69
2023-04-05T11:50:41.830Z,95199.06
2023-04-05T11:53:10.552Z,95201.81
2023-04-05T11:55:39.026Z,95191.00
2023-04-05T11:58:13.389Z,95192.91
2023-04-05T12:00:44.579Z,95188.19
2023-04-05T12:03:15.718Z,95192.03
2023-04-05T12:06:02.969Z,95184.84
2023-04-05T12:08:53.401Z,95191.41
2023-04-05T12:11:27.889Z,95189.69
2023-04-05T12:14:01.717Z,95186.56
2023-04-05T12:16:29.367Z,95177.25
2023-04-05T12:19:00.937Z,95184.75
2023-04-05T12:21:28.358Z,95179.47
2023-04-05T12:23:55.608Z,95178.13
2023-04-05T12:26:22.544Z,95172.06
2023-04-05T12:28:58.157Z,95174.94
2023-04-05T12:31:47.115Z,95164.28
2023-04-05T12:34:15.021Z,95165.25
2023-04-05T12:36:48.638Z,95166.53
2023-04-05T12:39:17.312Z,95177.28
2023-04-05T12:41:43.898Z,95176.50
2023-04-05T12:44:17.369Z,95167.50
2023-04-05T12:46:45.786Z,95159.22
2023-04-05T12:49:12.956Z,95161.00
2023-04-05T12:51:43.967Z,95159.44
2023-04-05T12:54:24.407Z,95162.34
2023-04-05T12:56:53.058Z,95162.41
2023-04-05T12:59:20.303Z,95156.53
2023-04-05T13:01:47.038Z,95151.13
2023-04-05T13:04:16.562Z,95148.84
2023-04-05T13:06:44.812Z,95150.50
2023-04-05T13:09:11.438Z,95140.94
2023-04-05T13:11:38.074Z,95145.78
2023-04-05T13:14:04.782Z,95138.41
2023-04-05T13:16:31.850Z,95128.84
2023-04-05T13:18:58.411Z,95127.97
2023-04-05T13:21:25.078Z,95135.91
2023-04-05T13:23:51.737Z,95132.94
2023-04-05T13:26:18.342Z,95134.41
2023-04-05T13:28:44.976Z,95128.44
2023-04-05T13:31:13.733Z,95132.41
2023-04-05T13:33:42.231Z,95129.41
2023-04-05T13:36:11.079Z,95129.03
2023-04-05T13:38:37.878Z,95126.16
2023-04-05T13:41:04.619Z,95129.06
2023-04-05T13:43:31.536Z,95124.88
2023-04-05T13:45:58.154Z,95122.69
2023-04-05T13:48:24.720Z,95114.56
2023-04-05T13:50:51.279Z,95115.63
2023-04-05T13:53:17.861Z,95119.38
2023-04-05T13:55:44.414Z,95118.66
2023-04-05T13:58:11.497Z,95108.94
2023-04-05T14:00:40.193Z,95117.13
2023-04-05T14:03:07.022Z,95116.13
2023-04-05T14:05:33.765Z,95109.66
2023-04-05T14:08:00.602Z,95112.28
2023-04-05T14:10:31.559Z,95106.88
2023-04-05T14:12:58.146Z,95112.09
2023-04-05T14:15:24.842Z,95104.91
2023-04-05T14:17:51.603Z,95106.34
2023-04-05T14:20:18.254Z,95110.63
2023-04-05T14:22:44.900Z,95104.31
2023-04-05T14:25:11.698Z,95103.88
2023-04-05T14:27:42.102Z,95102.63
2023-04-05T14:30:10.297Z,95092.38
2023-04-05T14:32:36.980Z,95091.50
2023-04-05T14:35:04.308Z,95101.91
2023-04-05T14:37:30.970Z,95094.53
2023-04-05T14:39:58.020Z,95091.88
2023-04-05T14:42:31.308Z,95099.09
2023-04-05T14:45:04.251Z,95089.75
2023-04-05T14:47:31.001Z,95094.41
2023-04-05T14:49:57.695Z,95090.09
2023-04-05T14:52:24.664Z,95079.63
2023-04-05T14:54:51.444Z,95083.44
2023-04-05T14:57:18.126Z,95081.22
2023-04-05T14:59:44.737Z,95085.91
2023-04-05T15:02:11.844Z,95085.09
2023-04-05T15:04:38.872Z,95089.75
2023-04-05T15:07:05.488Z,95084.91
2023-04-05T15:09:32.871Z,95079.31
2023-04-05T15:11:59.606Z,95086.75
2023-04-05T15:14:32.341Z,95090.84
2023-04-05T15:16:59.756Z,95093.50
2023-04-05T15:19:27.384Z,95097.00
2023-04-05T15:21:54.094Z,95089.16
2023-04-05T15:24:21.102Z,95096.84
2023-04-05T15:26:47.777Z,95098.28
2023-04-05T15:29:14.449Z,95096.75
2023-04-05T15:31:41.789Z,95090.31
2023-04-05T15:34:08.643Z,95095.28
2023-04-05T15:36:36.035Z,95091.59
2023-04-05T15:39:05.000Z,95092.00
2023-04-05T15:41:33.412Z,95091.19
2023-04-05T15:44:00.574Z,95097.63
2023-04-05T15:46:29.002Z,95100.31
2023-04-05T15:48:56.121Z,95100.25
2023-04-05T15:51:22.872Z,95100.41
2023-04-05T15:53:49.575Z,95094.03
2023-04-05T15:56:16.177Z,95096.09
2023-04-05T15:58:43.113Z,95094.47
2023-04-05T16:01:10.005Z,95096.94
2023-04-05T16:03:36.770Z,95091.13
2023-04-05T16:06:03.566Z,95101.84
2023-04-05T16:08:30.242Z,95100.81
2023-04-05T16:10:57.364Z,95092.69
2023-04-05T16:13:24.158Z,95100.00
2023-04-05T16:15:51.286Z,95094.94
2023-04-05T16:18:19.842Z,95100.69
2023-04-05T16:20:47.776Z,95096.22
2023-04-05T16:23:15.050Z,95096.34
2023-04-05T16:25:41.801Z,95101.91
2023-04-05T16:28:08.585Z,95094.44
2023-04-05T16:30:36.414Z,95097.66
2023-04-05T16:33:03.238Z,95097.78
2023-04-05T16:35:31.427Z,95106.56
2023-04-05T16:38:00.742Z,95108.03
2023-04-05T16:40:27.484Z,95108.34
2023-04-05T16:42:55.732Z,95104.50
2023-04-05T16:45:22.282Z,95106.00
2023-04-05T16:47:48.954Z,95107.59
2023-04-05T16:50:15.863Z,95107.66
2023-04-05T16:52:42.520Z,95106.38
2023-04-05T16:55:09.690Z,95111.59
2023-04-05T16:57:36.780Z,95116.22
2023-04-05T17:00:05.602Z,95110.94
2023-04-05T17:02:32.396Z,95112.63
2023-04-05T17:04:59.116Z,95119.31
2023-04-05T17:07:25.892Z,95117.13
2023-04-05T17:09:52.625Z,95115.69
2023-04-05T17:12:20.166Z,95116.28
2023-04-05T17:14:46.771Z,95114.91
2023-04-05T17:17:13.510Z,95116.97
2023-04-05T17:19:40.126Z,95120.94
2023-04-05T17:22:07.109Z,95116.88
2023-04-05T17:24:36.078Z,95123.38
2023-04-05T17:27:03.556Z,95120.19
2023-04-05T17:29:30.558Z,95125.84
2023-04-05T17:31:57.325Z,95124.72
2023-04-05T17:34:24.212Z,95117.53
2023-04-05T17:36:52.815Z,95121.25
2023-04-05T17:39:19.668Z,95128.34
2023-04-05T17:41:46.503Z,95129.06
2023-04-05T17:44:13.488Z,95131.41
2023-04-05T17:46:46.340Z,95132.47
2023-04-05T17:49:17.980Z,95135.78
2023-04-05T17:51:44.788Z,95148.22
2023-04-05T17:54:12.357Z,95140.91
2023-04-05T17:56:39.149Z,95137.34
2023-04-05T17:59:06.675Z,95140.91
2023-04-05T18:01:33.823Z,95140.25
2023-04-05T18:04:01.216Z,95144.56
2023-04-05T18:06:28.100Z,95141.06
2023-04-05T18:08:54.891Z,95148.91
2023-04-05T18:11:21.717Z,95155.75
2023-04-05T18:13:48.486Z,95151.72
2023-04-05T18:16:15.348Z,95155.47
2023-04-05T18:18:41.993Z,95153.53
2023-04-05T18:21:10.030Z,95154.72
2023-04-05T18:23:37.005Z,95155.63
2023-04-05T18:26:07.818Z,95158.28
2023-04-05T18:28:34.691Z,95166.28
2023-04-05T18:31:01.478Z,95164.88
2023-04-05T18:33:28.664Z,95173.91
2023-04-05T18:35:55.396Z,95178.13
2023-04-05T18:38:22.266Z,95185.16
2023-04-05T18:40:49.139Z,95185.66
2023-04-05T18:43:15.820Z,95192.19
2023-04-05T18:45:42.734Z,95196.88
2023-04-05T18:48:10.430Z,95193.88
2023-04-05T18:50:37.228Z,95197.44
2023-04-05T18:53:04.116Z,95201.44
2023-04-05T18:55:30.776Z,95197.06
2023-04-05T18:57:57.598Z,95199.06
2023-04-05T19:00:24.250Z,95199.31
2023-04-05T19:02:51.200Z,95206.41
2023-04-05T19:05:18.106Z,95201.44
2023-04-05T19:07:45.019Z,95196.97
2023-04-05T19:10:11.870Z,95205.44
2023-04-05T19:12:38.787Z,95207.50
2023-04-05T19:15:07.197Z,95214.59
2023-04-05T19:17:33.873Z,95207.31
2023-04-05T19:20:00.510Z,95203.31
2023-04-05T19:22:27.257Z,95208.59
2023-04-05T19:24:53.893Z,95207.03
2023-04-05T19:27:21.064Z,95212.47
2023-04-05T19:29:47.647Z,95214.91
2023-04-05T19:32:15.064Z,95217.41
2023-04-05T19:34:41.726Z,95217.09
2023-04-05T19:37:08.652Z,95223.81
2023-04-05T19:39:36.395Z,95220.91
2023-04-05T19:42:03.211Z,95227.53
2023-04-05T19:44:45.484Z,95232.44
2023-04-05T19:47:13.940Z,95231.19
2023-04-05T19:49:42.417Z,95228.19
2023-04-05T19:52:11.717Z,95226.72
2023-04-05T19:54:39.766Z,95226.22
2023-04-05T19:57:07.190Z,95224.22
2023-04-05T19:59:35.266Z,95225.84
2023-04-05T20:02:10.059Z,95222.75
2023-04-05T20:04:39.126Z,95228.81
2023-04-05T20:07:08.303Z,95230.78
2023-04-05T20:09:37.618Z,95223.47
2023-04-05T20:12:06.274Z,95220.38
2023-04-05T20:14:42.556Z,95228.09
2023-04-05T20:17:10.609Z,95226.19
2023-04-05T20:19:39.479Z,95231.66
2023-04-05T20:22:07.744Z,95224.78
2023-04-05T20:24:37.040Z,95227.25
2023-04-05T20:27:04.156Z,95227.41
2023-04-05T20:29:36.035Z,95223.06
2023-04-05T20:32:02.954Z,95215.66
2023-04-05T20:34:35.040Z,95227.41
2023-04-05T20:37:07.171Z,95219.97
2023-04-05T20:39:34.582Z,95220.13
2023-04-05T20:42:01.459Z,95221.84
2023-04-05T20:44:28.193Z,95222.81
2023-04-05T20:46:57.096Z,95221.91
2023-04-05T20:49:25.635Z,95223.66
2023-04-05T20:51:54.893Z,95218.16
2023-04-05T20:54:22.423Z,95224.06
2023-04-05T20:56:49.165Z,95215.72
2023-04-05T20:59:15.865Z,95215.72
2023-04-05T21:01:43.070Z,95216.91
2023-04-05T21:04:10.201Z,95212.22
2023-04-05T21:06:37.636Z,95215.84
2023-04-05T21:09:04.686Z,95218.59
2023-04-05T21:11:31.385Z,95216.19
2023-04-05T21:13:58.189Z,95214.66
2023-04-05T21:16:24.917Z,95212.25
2023-04-05T21:18:51.729Z,95210.81
2023-04-05T21:21:18.570Z,95219.47
2023-04-05T21:23:45.444Z,95220.63
2023-04-05T21:26:12.169Z,95225.88
2023-04-05T21:28:38.870Z,95216.03
2023-04-05T21:31:05.625Z,95219.63
2023-04-05T21:33:32.514Z,95219.91
2023-04-05T21:35:59.309Z,95213.53
2023-04-05T21:38:26.163Z,95221.13
2023-04-05T21:40:52.819Z,95223.94
2023-04-05T21:43:19.635Z,95230.66
2023-04-05T21:45:46.906Z,95219.63
2023-04-05T21:48:13.752Z,95227.13
2023-04-05T21:50:40.490Z,95222.41
2023-04-05T21:53:09.614Z,95218.47
2023-04-05T21:55:36.560Z,95221.03
2023-04-05T21:58:03.253Z,95229.47
2023-04-05T22:00:29.984Z,95226.78
2023-04-05T22:02:56.792Z,95226.47
2023-04-05T22:05:36.533Z,95228.41
2023-04-05T22:08:06.285Z,95232.13
2023-04-05T22:10:33.628Z,95229.22
2023-04-05T22:13:00.383Z,95234.50
2023-04-05T22:15:27.277Z,95232.25
2023-04-05T22:17:53.940Z,95231.94
2023-04-05T22:20:20.676Z,95226.13
2023-04-05T22:22:47.953Z,95220.31
2023-04-05T22:25:14.633Z,95229.94
2023-04-05T22:27:41.343Z,95224.97
2023-04-05T22:30:08.612Z,95229.00
2023-04-05T22:32:35.981Z,95224.41
2023-04-05T22:35:04.700Z,95228.53
2023-04-05T22:37:35.570Z,95228.44
2023-04-05T22:40:03.806Z,95226.44
2023-04-05T22:42:30.626Z,95227.94
2023-04-05T22:44:57.382Z,95228.09
2023-04-05T22:47:24.305Z,95228.22
2023-04-05T22:49:51.888Z,95225.44
2023-04-05T22:52:18.797Z,95219.31
2023-04-05T22:54:45.565Z,95223.63
2023-04-05T22:57:13.007Z,95224.91
2023-04-05T22:59:39.787Z,95216.94
2023-04-05T23:02:06.591Z,95220.28
2023-04-05T23:04:33.264Z,95218.59
2023-04-05T23:07:00.000Z,95223.66
2023-04-05T23:09:27.442Z,95215.44
2023-04-05T23:11:54.242Z,95214.81
2023-04-05T23:14:21.065Z,95219.94
2023-04-05T23:16:47.932Z,95218.44
2023-04-05T23:19:14.522Z,95218.72
2023-04-05T23:21:41.672Z,95207.78
2023-04-05T23:24:08.625Z,95216.78
2023-04-05T23:26:35.600Z,95215.25
2023-04-05T23:29:02.399Z,95225.28
2023-04-05T23:31:29.508Z,95217.53
2023-04-05T23:33:56.105Z,95211.81
2023-04-05T23:36:22.961Z,95213.72
2023-04-05T23:38:49.622Z,95215.78
2023-04-05T23:41:16.389Z,95218.28
2023-04-05T23:43:43.123Z,95211.63
2023-04-05T23:46:10.775Z,95221.16
2023-04-05T23:48:37.819Z,95216.66
2023-04-05T23:51:04.807Z,95218.44
2023-04-05T23:53:31.437Z,95219.78
2023-04-05T23:55:58.300Z,95214.09
2023-04-05T23:58:25.175Z,95210.22
